createdAt,value
2022-10-06T00:00:20.391Z,102190
2022-10-06T00:05:20.353Z,102200
2022-10-06T00:10:20.345Z,102210
2022-10-06T00:15:20.382Z,102220
2022-10-06T00:20:20.356Z,102230
2022-10-06T00:25:20.361Z,102240
2022-10-06T00:30:20.575Z,102260
2022-10-06T00:35:20.364Z,102270
2022-10-06T00:40:20.371Z,102280
2022-10-06T00:45:20.390Z,102290
2022-10-06T00:50:20.369Z,102300
2022-10-06T00:55:20.377Z,102300
2022-10-06T01:00:20.442Z,102310
2022-10-06T01:05:20.384Z,102320
2022-10-06T01:10:20.389Z,102330
2022-10-06T01:15:20.406Z,102340
2022-10-06T01:20:20.387Z,102360
2022-10-06T01:25:20.401Z,102370
2022-10-06T01:30:20.464Z,102370
2022-10-06T01:35:20.398Z,102380
2022-10-06T01:40:20.403Z,102390
2022-10-06T01:45:20.424Z,102400
2022-10-06T01:50:20.405Z,102400
2022-10-06T01:55:20.409Z,102410
2022-10-06T02:00:20.422Z,102400
2022-10-06T02:05:20.417Z,102400
2022-10-06T02:10:20.422Z,102420
2022-10-06T02:15:20.447Z,102430
2022-10-06T02:20:20.424Z,102440
2022-10-06T02:25:20.432Z,102450
2022-10-06T02:30:20.444Z,102450
2022-10-06T02:35:20.433Z,102460
2022-10-06T02:40:20.449Z,102470
2022-10-06T02:45:20.486Z,102470
2022-10-06T02:50:20.447Z,102490
2022-10-06T02:55:20.446Z,102500
2022-10-06T03:00:20.515Z,102500
2022-10-06T03:05:20.457Z,102510
2022-10-06T03:10:20.459Z,102520
2022-10-06T03:15:20.482Z,102530
2022-10-06T03:20:20.464Z,102540
2022-10-06T03:25:20.466Z,102550
2022-10-06T03:30:20.475Z,102560
2022-10-06T03:35:20.471Z,102570
2022-10-06T03:40:20.470Z,102570
2022-10-06T03:45:20.500Z,102580
2022-10-06T03:50:20.478Z,102580
2022-10-06T03:55:20.478Z,102590
2022-10-06T04:00:20.558Z,102600
2022-10-06T04:05:20.501Z,102600
2022-10-06T04:10:20.487Z,102620
2022-10-06T04:15:20.575Z,102630
2022-10-06T04:20:20.492Z,102640
2022-10-06T04:25:20.497Z,102640
2022-10-06T04:30:20.569Z,102650
2022-10-06T04:35:20.500Z,102660
2022-10-06T04:40:20.504Z,102670
2022-10-06T04:45:20.537Z,102680
2022-10-06T04:50:20.517Z,102690
2022-10-06T04:55:20.521Z,102690
2022-10-06T05:00:20.586Z,102700
2022-10-06T05:05:20.520Z,102710
2022-10-06T05:10:20.523Z,102720
2022-10-06T05:15:20.554Z,102730
2022-10-06T05:20:20.528Z,102730
2022-10-06T05:25:20.534Z,102740
2022-10-06T05:30:20.549Z,102750
2022-10-06T05:35:20.541Z,102750
2022-10-06T05:40:20.544Z,102760
2022-10-06T05:45:20.560Z,102770
2022-10-06T05:50:20.784Z,102770
2022-10-06T05:55:20.549Z,102780
2022-10-06T06:00:20.570Z,102800
2022-10-06T06:05:20.561Z,102800
2022-10-06T06:10:20.555Z,102810
2022-10-06T06:15:20.580Z,102820
2022-10-06T06:20:20.567Z,102830
2022-10-06T06:25:20.566Z,102830
2022-10-06T06:30:20.583Z,102840
2022-10-06T06:35:20.571Z,102850
2022-10-06T06:40:20.572Z,102860
2022-10-06T06:45:21.054Z,102860
2022-10-06T06:50:20.580Z,102870
2022-10-06T06:55:20.590Z,102870
2022-10-06T07:00:20.832Z,102880
2022-10-06T07:05:20.593Z,102890
2022-10-06T07:10:20.594Z,102900
2022-10-06T07:15:21.071Z,102900
2022-10-06T07:20:20.603Z,102910
2022-10-06T07:25:25.340Z,102920
2022-10-06T07:30:20.852Z,102920
2022-10-06T07:35:20.604Z,102930
2022-10-06T07:40:20.610Z,102940
2022-10-06T07:45:21.102Z,102950
2022-10-06T07:50:20.621Z,102960
2022-10-06T07:55:20.622Z,102970
2022-10-06T08:00:20.920Z,102970
2022-10-06T08:05:20.625Z,102980
2022-10-06T08:10:20.628Z,102990
2022-10-06T08:15:20.635Z,103000
2022-10-06T08:20:21.693Z,103000
2022-10-06T08:25:20.657Z,103010
2022-10-06T08:30:21.010Z,103010
2022-10-06T08:35:20.650Z,103010
2022-10-06T08:40:20.742Z,103020
2022-10-06T08:45:20.649Z,103020
2022-10-06T08:50:20.724Z,103020
2022-10-06T08:55:21.136Z,103030
2022-10-06T09:00:22.159Z,103040
2022-10-06T09:05:20.659Z,103040
2022-10-06T09:10:20.665Z,103050
2022-10-06T09:15:20.663Z,103060
2022-10-06T09:20:20.731Z,103070
2022-10-06T09:25:20.672Z,103070
2022-10-06T09:30:21.394Z,103080
2022-10-06T09:35:20.675Z,103080
2022-10-06T09:40:20.680Z,103080
2022-10-06T09:45:20.689Z,103080
2022-10-06T09:50:20.687Z,103090
2022-10-06T09:55:20.689Z,103080
2022-10-06T10:00:20.936Z,103090
2022-10-06T10:05:20.964Z,103090
2022-10-06T10:10:20.704Z,103090
2022-10-06T10:15:20.708Z,103100
2022-10-06T10:20:20.704Z,103100
2022-10-06T10:25:20.708Z,103100
2022-10-06T10:30:20.953Z,103110
2022-10-06T10:35:21.215Z,103120
2022-10-06T10:40:20.724Z,103120
2022-10-06T10:45:20.726Z,103120
2022-10-06T10:50:20.724Z,103120
2022-10-06T10:55:20.727Z,103120
2022-10-06T11:00:20.979Z,103120
2022-10-06T11:05:23.093Z,103130
2022-10-06T11:10:21.217Z,103130
2022-10-06T11:15:20.732Z,103120
2022-10-06T11:20:20.742Z,103120
2022-10-06T11:25:20.744Z,103120
2022-10-06T11:30:20.982Z,103130
2022-10-06T11:35:20.743Z,103130
2022-10-06T11:40:20.747Z,103130
2022-10-06T11:45:21.242Z,103130
2022-10-06T11:50:20.755Z,103120
2022-10-06T11:55:20.762Z,103120
2022-10-06T12:00:21.013Z,103120
2022-10-06T12:05:54.882Z,103100
2022-10-06T12:10:20.769Z,103110
2022-10-06T12:20:21.261Z,103110
2022-10-06T12:25:20.783Z,103100
2022-10-06T12:30:21.118Z,103100
2022-10-06T12:35:20.791Z,103100
2022-10-06T12:40:20.851Z,103110
2022-10-06T12:45:20.792Z,103100
2022-10-06T12:50:20.799Z,103100
2022-10-06T12:55:21.276Z,103090
2022-10-06T13:00:20.877Z,103090
2022-10-06T13:05:21.137Z,103090
2022-10-06T13:10:20.806Z,103090
2022-10-06T13:15:21.023Z,103100
2022-10-06T13:20:20.815Z,103100
2022-10-06T13:25:20.821Z,103100
2022-10-06T13:30:21.138Z,103100
2022-10-06T13:35:20.820Z,103100
2022-10-06T13:40:21.694Z,103090
2022-10-06T13:45:20.830Z,103100
2022-10-06T13:50:20.830Z,103090
2022-10-06T13:55:20.836Z,103090
2022-10-06T14:00:20.837Z,103090
2022-10-06T14:05:21.090Z,103100
2022-10-06T14:10:21.206Z,103100
2022-10-06T14:15:20.849Z,103100
2022-10-06T14:20:20.850Z,103100
2022-10-06T14:25:20.858Z,103110
2022-10-06T14:30:20.867Z,103110
2022-10-06T14:35:21.347Z,103100
2022-10-06T14:40:20.861Z,103100
2022-10-06T14:45:21.104Z,103090
2022-10-06T14:50:20.875Z,103100
2022-10-06T14:55:20.873Z,103100
2022-10-06T15:00:20.874Z,103110
2022-10-06T15:05:20.881Z,103100
2022-10-06T15:10:21.123Z,103100
2022-10-06T15:15:20.889Z,103100
2022-10-06T15:20:21.131Z,103090
2022-10-06T15:25:20.885Z,103090
2022-10-06T15:30:20.901Z,103090
2022-10-06T15:35:20.898Z,103090
2022-10-06T15:40:20.899Z,103080
2022-10-06T15:45:21.393Z,103080
2022-10-06T15:50:20.913Z,103080
2022-10-06T15:55:21.158Z,103090
2022-10-06T16:00:20.920Z,103080
2022-10-06T16:05:20.918Z,103090
2022-10-06T16:10:20.919Z,103090
2022-10-06T16:15:20.925Z,103090
2022-10-06T16:20:21.175Z,103090
2022-10-06T16:25:20.922Z,103100
2022-10-06T16:30:21.182Z,103100
2022-10-06T16:35:20.931Z,103100
2022-10-06T16:40:20.941Z,103100
2022-10-06T16:45:20.939Z,103100
2022-10-06T16:50:20.943Z,103100
2022-10-06T16:53:17.007Z,103100
2022-10-06T16:55:20.939Z,103100
2022-10-06T17:00:20.944Z,103110
2022-10-06T17:05:21.728Z,103110
2022-10-06T17:10:21.507Z,103110
2022-10-06T17:15:20.960Z,103120
2022-10-06T17:20:20.963Z,103120
2022-10-06T17:25:21.984Z,103120
2022-10-06T17:30:20.971Z,103120
2022-10-06T17:35:20.973Z,103120
2022-10-06T17:40:21.214Z,103120
2022-10-06T17:45:21.407Z,103120
2022-10-06T17:50:20.978Z,103110
2022-10-06T17:55:20.984Z,103100
2022-10-06T18:00:21.467Z,103110
2022-10-06T18:05:20.987Z,103110
2022-10-06T18:10:20.985Z,103110
2022-10-06T18:15:21.242Z,103120
2022-10-06T18:20:20.995Z,103120
2022-10-06T18:25:25.907Z,103110
2022-10-06T18:30:22.245Z,103110
2022-10-06T18:40:21.025Z,103100
2022-10-06T18:45:21.015Z,103110
2022-10-06T18:50:21.283Z,103100
2022-10-06T18:55:21.017Z,103100
2022-10-06T19:00:21.028Z,103100
2022-10-06T19:05:21.026Z,103100
2022-10-06T19:10:21.519Z,103100
2022-10-06T19:15:21.551Z,103100
2022-10-06T19:20:21.030Z,103110
2022-10-06T19:25:21.296Z,103110
2022-10-06T19:30:21.044Z,103110
2022-10-06T19:35:21.039Z,103110
2022-10-06T19:40:21.038Z,103110
2022-10-06T19:45:21.524Z,103100
2022-10-06T19:50:21.051Z,103110
2022-10-06T19:55:21.050Z,103110
2022-10-06T20:00:21.334Z,103110
2022-10-06T20:05:21.058Z,103100
2022-10-06T20:10:21.063Z,103100
2022-10-06T20:15:21.064Z,103090
2022-10-06T20:20:21.598Z,103100
2022-10-06T20:25:21.072Z,103090
2022-10-06T20:30:21.073Z,103090
2022-10-06T20:33:34.564Z,103090
2022-10-06T20:37:36.640Z,103090
2022-10-06T20:42:36.631Z,103100
2022-10-06T20:47:36.634Z,103100
2022-10-06T20:52:37.149Z,103100
2022-10-06T20:57:36.640Z,103100
2022-10-06T21:02:36.712Z,103090
2022-10-06T21:07:37.459Z,103080
2022-10-06T21:12:36.673Z,103080
2022-10-06T21:17:36.677Z,103080
2022-10-06T21:22:36.683Z,103080
2022-10-06T21:27:37.724Z,103070
2022-10-06T21:32:36.686Z,103070
2022-10-06T21:37:36.691Z,103070
2022-10-06T21:42:36.939Z,103070
2022-10-06T21:47:36.702Z,103060
2022-10-06T21:52:36.703Z,103060
2022-10-06T21:57:36.702Z,103050
2022-10-06T22:02:37.736Z,103040
2022-10-06T22:07:36.715Z,103040
2022-10-06T22:12:37.472Z,103040
2022-10-06T22:17:36.721Z,103030
2022-10-06T22:22:36.715Z,103020
2022-10-06T22:27:36.718Z,103020
2022-10-06T22:32:36.722Z,103010
2022-10-06T22:37:36.975Z,103010
2022-10-06T22:42:36.727Z,103000
2022-10-06T22:47:37.454Z,103000
2022-10-06T22:52:36.729Z,102990
2022-10-06T22:57:36.732Z,103000
2022-10-06T23:02:36.738Z,102990
2022-10-06T23:07:37.220Z,102980
2022-10-06T23:12:36.783Z,102970
2022-10-06T23:17:36.742Z,102970
2022-10-06T23:22:37.492Z,102960
2022-10-06T23:27:36.753Z,102960
2022-10-06T23:32:36.775Z,102950
2022-10-06T23:37:36.757Z,102950
2022-10-06T23:42:37.752Z,102950
2022-10-06T23:47:36.761Z,102940
2022-10-06T23:52:36.763Z,102940
2022-10-06T23:57:37.006Z,102930
